createdAt,value
2018-06-20T00:00:06.341Z,100825
2018-06-20T00:01:11.845Z,100816
2018-06-20T00:02:16.721Z,100822
2018-06-20T00:03:21.900Z,100837
2018-06-20T00:04:27.721Z,100816
2018-06-20T00:05:32.595Z,100822
2018-06-20T00:06:38.178Z,100819
2018-06-20T00:07:43.327Z,100813
2018-06-20T00:08:48.520Z,100810
2018-06-20T00:09:54.048Z,100810
2018-06-20T00:10:59.201Z,100816
2018-06-20T00:12:03.814Z,100813
2018-06-20T00:13:08.965Z,100802
2018-06-20T00:14:14.420Z,100810
2018-06-20T00:15:19.307Z,100810
2018-06-20T00:16:25.038Z,100805
2018-06-20T00:17:30.479Z,100805
2018-06-20T00:18:36.051Z,100805
2018-06-20T00:19:41.222Z,100799
2018-06-20T00:20:46.403Z,100805
2018-06-20T00:21:52.246Z,100797
2018-06-20T00:22:57.413Z,100791
2018-06-20T00:24:02.864Z,100791
2018-06-20T00:25:08.651Z,100797
2018-06-20T00:26:14.104Z,100794
2018-06-20T00:27:18.699Z,100788
2018-06-20T00:28:23.959Z,100794
2018-06-20T00:29:29.401Z,100791
2018-06-20T00:30:35.404Z,100785
2018-06-20T00:31:40.571Z,100797
2018-06-20T00:32:45.478Z,100794
2018-06-20T00:33:50.713Z,100782
2018-06-20T00:34:55.877Z,100780
2018-06-20T00:36:01.038Z,100785
2018-06-20T00:37:06.017Z,100782
2018-06-20T00:38:11.473Z,100788
2018-06-20T00:39:16.917Z,100791
2018-06-20T00:40:22.336Z,100782
2018-06-20T00:41:27.204Z,100782
2018-06-20T00:42:32.764Z,100771
2018-06-20T00:43:38.215Z,100774
2018-06-20T00:44:43.671Z,100780
2018-06-20T00:45:48.806Z,100780
2018-06-20T00:46:53.674Z,100774
2018-06-20T00:47:58.568Z,100774
2018-06-20T00:49:03.712Z,100768
2018-06-20T00:50:08.591Z,100777
2018-06-20T00:51:14.051Z,100780
2018-06-20T00:52:19.561Z,100771
2018-06-20T00:53:24.739Z,100774
2018-06-20T00:54:30.427Z,100771
2018-06-20T00:55:35.579Z,100774
2018-06-20T00:56:41.026Z,100771
2018-06-20T00:57:46.444Z,100765
2018-06-20T00:58:51.330Z,100768
2018-06-20T00:59:55.940Z,100768
2018-06-20T01:01:01.652Z,100771
2018-06-20T01:02:06.279Z,100765
2018-06-20T01:03:10.902Z,100771
2018-06-20T01:04:16.438Z,100768
2018-06-20T01:05:21.027Z,100759
2018-06-20T01:06:26.323Z,100762
2018-06-20T01:07:30.925Z,100765
2018-06-20T01:08:36.362Z,100771
2018-06-20T01:09:42.310Z,100762
2018-06-20T01:10:47.189Z,100777
2018-06-20T01:11:52.867Z,100771
2018-06-20T01:12:59.501Z,100762
2018-06-20T01:14:04.662Z,100765
2018-06-20T01:15:09.260Z,100765
2018-06-20T01:16:14.973Z,100774
2018-06-20T01:17:20.418Z,100765
2018-06-20T01:18:40.903Z,100771
2018-06-20T01:19:46.343Z,100768
2018-06-20T01:20:51.233Z,100777
2018-06-20T01:21:56.070Z,100774
2018-06-20T01:23:01.263Z,100762
2018-06-20T01:24:05.860Z,100768
2018-06-20T01:25:11.273Z,100771
2018-06-20T01:26:16.729Z,100759
2018-06-20T01:27:22.163Z,100759
2018-06-20T01:28:28.513Z,100756
2018-06-20T01:29:33.951Z,100759
2018-06-20T01:30:39.129Z,100759
2018-06-20T01:31:44.280Z,100753
2018-06-20T01:32:49.733Z,100768
2018-06-20T01:33:55.425Z,100759
2018-06-20T01:35:00.298Z,100756
2018-06-20T01:36:05.173Z,100762
2018-06-20T01:37:10.112Z,100753
2018-06-20T01:38:15.271Z,100765
2018-06-20T01:39:20.433Z,100751
2018-06-20T01:40:25.658Z,100762
2018-06-20T01:41:30.550Z,100765
2018-06-20T01:42:35.968Z,100765
2018-06-20T01:43:41.441Z,100756
2018-06-20T01:44:46.897Z,100759
2018-06-20T01:45:52.403Z,100765
2018-06-20T01:46:57.571Z,100765
2018-06-20T01:48:02.170Z,100756
2018-06-20T01:49:07.863Z,100765
2018-06-20T01:50:12.761Z,100765
2018-06-20T01:51:17.935Z,100753
2018-06-20T01:52:23.462Z,100756
2018-06-20T01:53:28.648Z,100756
2018-06-20T01:54:34.324Z,100753
2018-06-20T01:55:39.577Z,100759
2018-06-20T01:56:44.803Z,100756
2018-06-20T01:57:50.232Z,100765
2018-06-20T01:58:55.667Z,100751
2018-06-20T02:00:00.837Z,100751
2018-06-20T02:01:06.339Z,100756
2018-06-20T02:02:11.777Z,100751
2018-06-20T02:03:16.943Z,100762
2018-06-20T02:04:22.165Z,100762
2018-06-20T02:05:27.373Z,100748
2018-06-20T02:06:33.356Z,100751
2018-06-20T02:07:38.823Z,100756
2018-06-20T02:08:44.000Z,100762
2018-06-20T02:09:49.564Z,100756
2018-06-20T02:10:55.012Z,100753
2018-06-20T02:12:00.453Z,100748
2018-06-20T02:13:05.588Z,100756
2018-06-20T02:14:10.193Z,100756
2018-06-20T02:15:15.386Z,100748
2018-06-20T02:16:20.624Z,100748
2018-06-20T02:17:25.820Z,100756
2018-06-20T02:18:31.401Z,100745
2018-06-20T02:19:36.286Z,100745
2018-06-20T02:20:41.733Z,100756
2018-06-20T02:21:47.168Z,100742
2018-06-20T02:22:52.348Z,100748
2018-06-20T02:23:57.798Z,100751
2018-06-20T02:25:03.625Z,100753
2018-06-20T02:26:08.498Z,100748
2018-06-20T02:27:13.681Z,100751
2018-06-20T02:28:18.837Z,100745
2018-06-20T02:29:24.287Z,100739
2018-06-20T02:30:28.986Z,100756
2018-06-20T02:31:34.432Z,100748
2018-06-20T02:32:39.598Z,100753
2018-06-20T02:33:44.310Z,100762
2018-06-20T02:34:49.754Z,100745
2018-06-20T02:35:54.633Z,100751
2018-06-20T02:37:00.431Z,100751
2018-06-20T02:38:05.313Z,100745
2018-06-20T02:39:10.502Z,100739
2018-06-20T02:40:16.023Z,100742
2018-06-20T02:41:21.189Z,100753
2018-06-20T02:42:26.798Z,100742
2018-06-20T02:43:32.244Z,100748
2018-06-20T02:44:37.678Z,100753
2018-06-20T02:45:43.215Z,100751
2018-06-20T02:46:48.090Z,100739
2018-06-20T02:47:53.251Z,100745
2018-06-20T02:48:58.939Z,100745
2018-06-20T02:50:04.385Z,100745
2018-06-20T02:51:09.281Z,100742
2018-06-20T02:52:14.437Z,100739
2018-06-20T02:53:19.625Z,100739
2018-06-20T02:54:39.988Z,100742
2018-06-20T02:55:45.146Z,100733
2018-06-20T02:56:50.613Z,100733
2018-06-20T02:57:56.039Z,100736
2018-06-20T02:59:01.495Z,100733
2018-06-20T03:00:06.371Z,100730
2018-06-20T03:01:11.816Z,100745
2018-06-20T03:02:16.671Z,100736
2018-06-20T03:03:21.849Z,100745
2018-06-20T03:04:26.840Z,100730
2018-06-20T03:05:32.001Z,100742
2018-06-20T03:06:37.288Z,100736
2018-06-20T03:07:42.444Z,100736
2018-06-20T03:08:47.893Z,100733
2018-06-20T03:09:53.311Z,100742
2018-06-20T03:10:58.483Z,100736
2018-06-20T03:12:03.401Z,100736
2018-06-20T03:13:08.848Z,100727
2018-06-20T03:14:14.296Z,100736
2018-06-20T03:15:19.473Z,100739
2018-06-20T03:16:25.175Z,100733
2018-06-20T03:17:30.050Z,100733
2018-06-20T03:18:35.547Z,100724
2018-06-20T03:19:40.993Z,100733
2018-06-20T03:20:46.162Z,100727
2018-06-20T03:21:52.006Z,100733
2018-06-20T03:22:57.455Z,100742
2018-06-20T03:24:02.613Z,100739
2018-06-20T03:25:07.846Z,100721
2018-06-20T03:26:12.732Z,100733
2018-06-20T03:27:17.701Z,100727
2018-06-20T03:28:23.074Z,100724
2018-06-20T03:29:27.953Z,100733
2018-06-20T03:30:33.794Z,100730
2018-06-20T03:31:39.239Z,100742
2018-06-20T03:32:44.398Z,100733
2018-06-20T03:33:49.819Z,100745
2018-06-20T03:34:54.697Z,100739
2018-06-20T03:36:00.153Z,100724
2018-06-20T03:37:05.867Z,100718
2018-06-20T03:38:10.756Z,100733
2018-06-20T03:39:16.195Z,100721
2018-06-20T03:40:21.622Z,100721
2018-06-20T03:41:26.502Z,100724
2018-06-20T03:42:32.207Z,100730
2018-06-20T03:43:37.372Z,100718
2018-06-20T03:44:42.241Z,100733
2018-06-20T03:45:47.938Z,100718
2018-06-20T03:46:53.381Z,100721
2018-06-20T03:47:58.826Z,100718
2018-06-20T03:49:03.952Z,100730
2018-06-20T03:50:09.117Z,100724
2018-06-20T03:51:14.278Z,100727
2018-06-20T03:52:20.128Z,100721
2018-06-20T03:53:25.576Z,100721
2018-06-20T03:54:31.369Z,100724
2018-06-20T03:55:36.230Z,100724
2018-06-20T03:56:41.140Z,100721
2018-06-20T03:57:46.565Z,100730
2018-06-20T03:58:51.160Z,100718
2018-06-20T03:59:56.600Z,100727
2018-06-20T04:01:02.299Z,100733
2018-06-20T04:02:06.917Z,100733
2018-06-20T04:03:12.117Z,100724
2018-06-20T04:04:17.268Z,100727
2018-06-20T04:05:22.430Z,100727
2018-06-20T04:06:28.819Z,100736
2018-06-20T04:07:33.703Z,100736
2018-06-20T04:08:38.889Z,100730
2018-06-20T04:09:44.409Z,100736
2018-06-20T04:10:49.848Z,100718
2018-06-20T04:11:55.294Z,100736
2018-06-20T04:13:01.084Z,100739
2018-06-20T04:14:05.972Z,100739
2018-06-20T04:15:10.853Z,100727
2018-06-20T04:16:16.269Z,100733
2018-06-20T04:17:21.725Z,100736
2018-06-20T04:18:27.283Z,100739
2018-06-20T04:19:32.740Z,100730
2018-06-20T04:20:37.905Z,100724
2018-06-20T04:21:43.316Z,100733
2018-06-20T04:22:48.510Z,100730
2018-06-20T04:23:53.969Z,100724
2018-06-20T04:24:59.182Z,100733
2018-06-20T04:26:04.070Z,100739
2018-06-20T04:27:09.245Z,100730
2018-06-20T04:28:15.122Z,100718
2018-06-20T04:29:20.569Z,100736
2018-06-20T04:30:26.594Z,100733
2018-06-20T04:31:32.056Z,100733
2018-06-20T04:32:37.521Z,100730
2018-06-20T04:33:42.938Z,100724
2018-06-20T04:34:48.022Z,100727
2018-06-20T04:35:54.023Z,100727
2018-06-20T04:36:59.576Z,100721
2018-06-20T04:38:05.010Z,100724
2018-06-20T04:39:10.487Z,100715
2018-06-20T04:40:15.927Z,100715
2018-06-20T04:41:20.535Z,100730
2018-06-20T04:42:26.334Z,100721
2018-06-20T04:43:31.209Z,100721
2018-06-20T04:44:36.717Z,100724
2018-06-20T04:45:41.718Z,100710
2018-06-20T04:46:47.182Z,100718
2018-06-20T04:47:52.350Z,100736
2018-06-20T04:48:57.803Z,100724
2018-06-20T04:50:02.974Z,100727
2018-06-20T04:51:08.432Z,100724
2018-06-20T04:52:13.881Z,100736
2018-06-20T04:53:18.780Z,100715
2018-06-20T04:54:23.931Z,100727
2018-06-20T04:55:43.994Z,100727
2018-06-20T04:56:48.877Z,100724
2018-06-20T04:57:54.453Z,100721
2018-06-20T04:58:59.895Z,100721
2018-06-20T05:00:05.065Z,100718
2018-06-20T05:01:10.482Z,100710
2018-06-20T05:02:15.918Z,100713
2018-06-20T05:03:21.103Z,100715
2018-06-20T05:04:41.161Z,100713
2018-06-20T05:05:46.314Z,100715
2018-06-20T05:06:52.010Z,100713
2018-06-20T05:07:57.468Z,100718
2018-06-20T05:09:02.957Z,100710
2018-06-20T05:10:08.176Z,100712
2018-06-20T05:11:13.620Z,100710
2018-06-20T05:12:19.060Z,100707
2018-06-20T05:13:24.479Z,100704
2018-06-20T05:14:29.648Z,100701
2018-06-20T05:15:34.784Z,100698
2018-06-20T05:16:40.229Z,100701
2018-06-20T05:17:45.384Z,100704
2018-06-20T05:18:51.170Z,100716
2018-06-20T05:19:56.846Z,100710
2018-06-20T05:21:02.021Z,100707
2018-06-20T05:22:06.295Z,100701
2018-06-20T05:23:11.935Z,100713
2018-06-20T05:24:16.553Z,100707
2018-06-20T05:25:22.249Z,100695
2018-06-20T05:26:27.402Z,100707
2018-06-20T05:27:33.086Z,100704
2018-06-20T05:28:38.246Z,100704
2018-06-20T05:29:43.411Z,100701
2018-06-20T05:30:48.925Z,100695
2018-06-20T05:31:54.358Z,100704
2018-06-20T05:32:59.622Z,100698
2018-06-20T05:34:05.196Z,100689
2018-06-20T05:35:10.082Z,100695
2018-06-20T05:36:15.234Z,100704
2018-06-20T05:37:21.083Z,100686
2018-06-20T05:38:25.957Z,100704
2018-06-20T05:39:31.505Z,100698
2018-06-20T05:40:36.675Z,100701
2018-06-20T05:41:41.915Z,100701
2018-06-20T05:42:47.287Z,100698
2018-06-20T05:43:52.761Z,100698
2018-06-20T05:44:57.077Z,100701
2018-06-20T05:46:02.506Z,100704
2018-06-20T05:47:06.846Z,100695
2018-06-20T05:48:12.011Z,100692
2018-06-20T05:49:17.846Z,100684
2018-06-20T05:50:23.304Z,100695
2018-06-20T05:51:28.740Z,100695
2018-06-20T05:52:34.201Z,100698
2018-06-20T05:53:38.539Z,100692
2018-06-20T05:54:43.939Z,100689
2018-06-20T05:55:48.804Z,100695
2018-06-20T05:56:54.285Z,100695
2018-06-20T05:58:00.092Z,100687
2018-06-20T05:59:04.952Z,100695
2018-06-20T06:00:10.121Z,100698
2018-06-20T06:01:15.911Z,100686
2018-06-20T06:02:21.382Z,100695
2018-06-20T06:03:26.945Z,100692
2018-06-20T06:04:32.108Z,100698
2018-06-20T06:05:36.456Z,100692
2018-06-20T06:06:41.872Z,100704
2018-06-20T06:07:47.349Z,100687
2018-06-20T06:08:52.818Z,100689
2018-06-20T06:09:58.072Z,100698
2018-06-20T06:11:02.396Z,100704
2018-06-20T06:12:07.117Z,100692
2018-06-20T06:13:12.771Z,100701
2018-06-20T06:14:17.696Z,100695
2018-06-20T06:15:23.092Z,100695
2018-06-20T06:16:28.835Z,100692
2018-06-20T06:17:34.277Z,100687
2018-06-20T06:18:39.122Z,100689
2018-06-20T06:19:44.570Z,100692
2018-06-20T06:20:49.452Z,100689
2018-06-20T06:21:54.879Z,100689
2018-06-20T06:23:00.031Z,100689
2018-06-20T06:24:05.480Z,100687
2018-06-20T06:25:11.185Z,100687
2018-06-20T06:26:16.341Z,100687
2018-06-20T06:27:21.505Z,100695
2018-06-20T06:28:27.444Z,100681
2018-06-20T06:29:32.310Z,100684
2018-06-20T06:30:38.145Z,100689
2018-06-20T06:31:43.649Z,100687
2018-06-20T06:32:48.783Z,100687
2018-06-20T06:33:54.598Z,100692
2018-06-20T06:35:00.059Z,100689
2018-06-20T06:36:05.498Z,100684
2018-06-20T06:37:10.442Z,100692
2018-06-20T06:38:15.339Z,100689
2018-06-20T06:39:20.215Z,100681
2018-06-20T06:40:25.361Z,100681
2018-06-20T06:41:30.530Z,100684
2018-06-20T06:42:35.461Z,100681
2018-06-20T06:43:40.661Z,100687
2018-06-20T06:44:45.809Z,100692
2018-06-20T06:45:50.677Z,100681
2018-06-20T06:46:56.122Z,100684
2018-06-20T06:48:01.577Z,100687
2018-06-20T06:49:07.263Z,100684
2018-06-20T06:50:12.866Z,100684
2018-06-20T06:51:17.765Z,100687
2018-06-20T06:52:23.464Z,100687
2018-06-20T06:53:28.637Z,100684
2018-06-20T06:54:33.929Z,100692
2018-06-20T06:55:38.541Z,100687
2018-06-20T06:56:43.715Z,100690
2018-06-20T06:57:49.638Z,100690
2018-06-20T06:58:55.082Z,100684
2018-06-20T07:00:00.521Z,100690
2018-06-20T07:01:05.256Z,100684
2018-06-20T07:02:09.850Z,100690
2018-06-20T07:03:14.733Z,100687
2018-06-20T07:04:19.984Z,100695
2018-06-20T07:05:25.140Z,100692
2018-06-20T07:06:30.736Z,100681
2018-06-20T07:07:35.637Z,100690
2018-06-20T07:08:40.550Z,100681
2018-06-20T07:09:46.239Z,100687
2018-06-20T07:10:52.011Z,100692
2018-06-20T07:11:57.459Z,100684
2018-06-20T07:13:02.900Z,100692
2018-06-20T07:14:07.792Z,100687
2018-06-20T07:15:13.407Z,100698
2018-06-20T07:16:18.986Z,100695
2018-06-20T07:17:23.588Z,100695
2018-06-20T07:18:29.157Z,100681
2018-06-20T07:19:34.621Z,100695
2018-06-20T07:20:39.479Z,100690
2018-06-20T07:21:44.619Z,100692
2018-06-20T07:22:49.795Z,100690
2018-06-20T07:23:55.244Z,100695
2018-06-20T07:25:00.697Z,100701
2018-06-20T07:26:05.596Z,100690
2018-06-20T07:27:10.798Z,100690
2018-06-20T07:28:16.300Z,100698
2018-06-20T07:29:21.602Z,100690
2018-06-20T07:30:26.980Z,100684
2018-06-20T07:31:32.601Z,100695
2018-06-20T07:32:37.756Z,100693
2018-06-20T07:33:43.178Z,100687
2018-06-20T07:34:47.762Z,100690
2018-06-20T07:35:53.745Z,100684
2018-06-20T07:37:00.144Z,100687
2018-06-20T07:38:05.593Z,100687
2018-06-20T07:39:11.048Z,100693
2018-06-20T07:40:16.371Z,100684
2018-06-20T07:41:20.978Z,100687
2018-06-20T07:42:26.756Z,100689
2018-06-20T07:43:31.673Z,100692
2018-06-20T07:44:36.559Z,100695
2018-06-20T07:45:42.364Z,100684
2018-06-20T07:46:47.800Z,100687
2018-06-20T07:47:53.132Z,100687
2018-06-20T07:48:58.328Z,100687
2018-06-20T07:50:03.774Z,100687
2018-06-20T07:51:08.883Z,100687
2018-06-20T07:52:14.577Z,100687
2018-06-20T07:53:19.761Z,100678
2018-06-20T07:54:25.609Z,100687
2018-06-20T07:55:30.522Z,100684
2018-06-20T07:56:35.389Z,100690
2018-06-20T07:57:41.183Z,100693
2018-06-20T07:58:46.056Z,100684
2018-06-20T07:59:50.926Z,100684
2018-06-20T08:00:57.017Z,100681
2018-06-20T08:02:02.373Z,100684
2018-06-20T08:03:07.303Z,100687
2018-06-20T08:04:12.631Z,100681
2018-06-20T08:05:17.514Z,100687
2018-06-20T08:06:22.941Z,100672
2018-06-20T08:07:29.106Z,100684
2018-06-20T08:08:34.558Z,100684
2018-06-20T08:09:40.350Z,100675
2018-06-20T08:10:45.545Z,100669
2018-06-20T08:11:50.901Z,100684
2018-06-20T08:12:56.185Z,100678
2018-06-20T08:14:01.353Z,100678
2018-06-20T08:15:05.987Z,100681
2018-06-20T08:16:11.397Z,100678
2018-06-20T08:17:16.289Z,100681
2018-06-20T08:18:21.769Z,100678
2018-06-20T08:19:26.871Z,100669
2018-06-20T08:20:32.037Z,100658
2018-06-20T08:21:37.282Z,100672
2018-06-20T08:22:42.152Z,100669
2018-06-20T08:23:47.314Z,100669
2018-06-20T08:24:52.442Z,100663
2018-06-20T08:25:57.603Z,100672
2018-06-20T08:27:02.226Z,100661
2018-06-20T08:28:08.369Z,100655
2018-06-20T08:29:13.538Z,100666
2018-06-20T08:30:18.908Z,100669
2018-06-20T08:31:24.620Z,100664
2018-06-20T08:32:29.528Z,100672
2018-06-20T08:33:34.675Z,100666
2018-06-20T08:34:39.840Z,100669
2018-06-20T08:35:45.284Z,100678
2018-06-20T08:36:50.992Z,100661
2018-06-20T08:37:55.891Z,100661
2018-06-20T08:39:00.500Z,100666
2018-06-20T08:40:05.547Z,100664
2018-06-20T08:41:10.992Z,100669
2018-06-20T08:42:16.156Z,100664
2018-06-20T08:43:21.763Z,100650
2018-06-20T08:44:27.211Z,100655
2018-06-20T08:45:32.987Z,100655
2018-06-20T08:46:37.856Z,100650
2018-06-20T08:47:42.738Z,100650
2018-06-20T08:48:48.349Z,100655
2018-06-20T08:49:52.948Z,100647
2018-06-20T08:50:58.118Z,100658
2018-06-20T08:52:03.594Z,100655
2018-06-20T08:53:08.280Z,100653
2018-06-20T08:54:13.543Z,100650
2018-06-20T08:55:19.262Z,100655
2018-06-20T08:56:24.156Z,100644
2018-06-20T08:57:29.857Z,100650
2018-06-20T08:58:35.034Z,100653
2018-06-20T08:59:40.217Z,100650
2018-06-20T09:00:45.924Z,100653
2018-06-20T09:01:50.440Z,100650
2018-06-20T09:02:55.887Z,100655
2018-06-20T09:04:01.625Z,100650
2018-06-20T09:05:06.775Z,100647
2018-06-20T09:06:11.934Z,100650
2018-06-20T09:07:17.773Z,100653
2018-06-20T09:08:23.225Z,100650
2018-06-20T09:09:28.745Z,100653
2018-06-20T09:10:33.929Z,100647
2018-06-20T09:11:38.851Z,100641
2018-06-20T09:12:44.078Z,100650
2018-06-20T09:13:49.240Z,100647
2018-06-20T09:14:54.446Z,100650
2018-06-20T09:15:59.964Z,100647
2018-06-20T09:17:04.869Z,100644
2018-06-20T09:18:10.058Z,100647
2018-06-20T09:19:15.340Z,100641
2018-06-20T09:20:20.297Z,100644
2018-06-20T09:21:25.912Z,100641
2018-06-20T09:22:31.374Z,100647
2018-06-20T09:23:36.545Z,100650
2018-06-20T09:24:41.567Z,100650
2018-06-20T09:25:47.009Z,100644
2018-06-20T09:26:52.699Z,100644
2018-06-20T09:27:58.260Z,100641
2018-06-20T09:29:03.129Z,100636
2018-06-20T09:30:08.553Z,100644
2018-06-20T09:31:14.642Z,100644
2018-06-20T09:32:20.016Z,100644
2018-06-20T09:33:40.086Z,100630
2018-06-20T09:34:45.548Z,100636
2018-06-20T09:35:50.445Z,100633
2018-06-20T09:36:55.962Z,100636
2018-06-20T09:38:01.402Z,100636
2018-06-20T09:39:06.576Z,100636
2018-06-20T09:40:11.995Z,100639
2018-06-20T09:41:16.614Z,100641
2018-06-20T09:42:22.145Z,100639
2018-06-20T09:43:27.560Z,100638
2018-06-20T09:44:33.071Z,100633
2018-06-20T09:45:38.698Z,100633
2018-06-20T09:46:44.156Z,100638
2018-06-20T09:47:49.622Z,100639
2018-06-20T09:48:55.332Z,100636
2018-06-20T09:50:00.769Z,100639
2018-06-20T09:51:05.372Z,100633
2018-06-20T09:52:10.807Z,100627
2018-06-20T09:53:16.658Z,100636
2018-06-20T09:54:21.675Z,100630
2018-06-20T09:55:27.189Z,100636
2018-06-20T09:56:32.413Z,100636
2018-06-20T09:57:38.178Z,100627
2018-06-20T09:58:44.000Z,100633
2018-06-20T09:59:49.147Z,100630
2018-06-20T10:00:54.589Z,100630
2018-06-20T10:01:59.474Z,100630
2018-06-20T10:03:04.352Z,100627
2018-06-20T10:04:09.767Z,100621
2018-06-20T10:05:14.658Z,100621
2018-06-20T10:06:20.141Z,100627
2018-06-20T10:07:25.675Z,100621
2018-06-20T10:08:30.824Z,100618
2018-06-20T10:09:36.233Z,100618
2018-06-20T10:10:41.401Z,100612
2018-06-20T10:11:46.565Z,100618
2018-06-20T10:12:52.261Z,100618
2018-06-20T10:13:57.140Z,100618
2018-06-20T10:15:02.311Z,100618
2018-06-20T10:16:07.544Z,100610
2018-06-20T10:17:12.299Z,100612
2018-06-20T10:18:17.472Z,100604
2018-06-20T10:19:23.479Z,100612
2018-06-20T10:20:28.657Z,100615
2018-06-20T10:21:34.392Z,100610
2018-06-20T10:22:39.277Z,100618
2018-06-20T10:23:43.866Z,100610
2018-06-20T10:24:49.569Z,100615
2018-06-20T10:25:55.018Z,100610
2018-06-20T10:27:00.178Z,100610
2018-06-20T10:28:05.601Z,100607
2018-06-20T10:29:11.041Z,100607
2018-06-20T10:30:15.914Z,100607
2018-06-20T10:31:21.397Z,100607
2018-06-20T10:32:26.847Z,100598
2018-06-20T10:33:32.642Z,100601
2018-06-20T10:34:38.089Z,100601
2018-06-20T10:35:43.534Z,100598
2018-06-20T10:36:49.443Z,100595
2018-06-20T10:37:54.309Z,100595
2018-06-20T10:38:59.194Z,100592
2018-06-20T10:40:05.147Z,100582
2018-06-20T10:41:10.689Z,100589
2018-06-20T10:42:15.870Z,100582
2018-06-20T10:43:21.187Z,100589
2018-06-20T10:44:26.839Z,100579
2018-06-20T10:45:32.084Z,100579
2018-06-20T10:46:37.266Z,100579
2018-06-20T10:47:42.171Z,100592
2018-06-20T10:48:47.305Z,100579
2018-06-20T10:49:52.753Z,100564
2018-06-20T10:50:58.532Z,100573
2018-06-20T10:52:04.387Z,100570
2018-06-20T10:53:09.284Z,100570
2018-06-20T10:54:14.784Z,100564
2018-06-20T10:55:20.390Z,100573
2018-06-20T10:56:25.834Z,100573
2018-06-20T10:57:31.358Z,100564
2018-06-20T10:58:36.518Z,100556
2018-06-20T10:59:41.688Z,100553
2018-06-20T11:00:47.383Z,100544
2018-06-20T11:01:52.733Z,100550
2018-06-20T11:02:58.189Z,100550
2018-06-20T11:04:03.136Z,100547
2018-06-20T11:05:08.029Z,100558
2018-06-20T11:06:13.404Z,100561
2018-06-20T11:07:18.831Z,100550
2018-06-20T11:08:23.997Z,100561
2018-06-20T11:09:29.229Z,100550
2018-06-20T11:10:34.486Z,100547
2018-06-20T11:11:39.084Z,100541
2018-06-20T11:12:44.606Z,100547
2018-06-20T11:13:49.824Z,100556
2018-06-20T11:14:55.538Z,100547
2018-06-20T11:16:00.391Z,100550
2018-06-20T11:17:05.574Z,100547
2018-06-20T11:18:11.023Z,100541
2018-06-20T11:19:16.471Z,100544
2018-06-20T11:20:21.682Z,100532
2018-06-20T11:21:27.530Z,100541
2018-06-20T11:22:32.977Z,100532
2018-06-20T11:23:38.445Z,100535
2018-06-20T11:24:43.953Z,100541
2018-06-20T11:25:49.412Z,100541
2018-06-20T11:26:54.829Z,100538
2018-06-20T11:28:00.525Z,100535
2018-06-20T11:29:05.779Z,100538
2018-06-20T11:30:11.752Z,100535
2018-06-20T11:31:17.170Z,100521
2018-06-20T11:32:22.620Z,100527
2018-06-20T11:33:28.278Z,100527
2018-06-20T11:34:33.925Z,100521
2018-06-20T11:35:39.089Z,100524
2018-06-20T11:36:44.100Z,100532
2018-06-20T11:37:49.286Z,100521
2018-06-20T11:38:54.485Z,100518
2018-06-20T11:39:59.673Z,100518
2018-06-20T11:41:04.554Z,100503
2018-06-20T11:42:09.425Z,100515
2018-06-20T11:43:15.119Z,100515
2018-06-20T11:44:20.579Z,100506
2018-06-20T11:45:26.310Z,100503
2018-06-20T11:46:31.704Z,100498
2018-06-20T11:47:36.604Z,100501
2018-06-20T11:48:41.775Z,100495
2018-06-20T11:49:47.226Z,100498
2018-06-20T11:50:52.169Z,100504
2018-06-20T11:51:57.884Z,100512
2018-06-20T11:53:03.077Z,100507
2018-06-20T11:54:07.687Z,100498
2018-06-20T11:55:13.203Z,100504
2018-06-20T11:56:18.546Z,100495
2018-06-20T11:57:23.709Z,100501
2018-06-20T11:58:29.319Z,100507
2018-06-20T11:59:33.915Z,100504
2018-06-20T12:00:39.635Z,100498
2018-06-20T12:01:44.513Z,100495
2018-06-20T12:02:49.713Z,100486
2018-06-20T12:03:55.821Z,100501
2018-06-20T12:05:01.308Z,100495
2018-06-20T12:06:05.915Z,100492
2018-06-20T12:07:11.330Z,100492
2018-06-20T12:08:16.949Z,100484
2018-06-20T12:09:22.113Z,100489
2018-06-20T12:10:28.280Z,100478
2018-06-20T12:11:33.656Z,100484
2018-06-20T12:12:38.774Z,100478
2018-06-20T12:13:43.939Z,100470
2018-06-20T12:14:49.390Z,100470
2018-06-20T12:15:55.233Z,100473
2018-06-20T12:17:00.403Z,100473
2018-06-20T12:18:05.287Z,100473
2018-06-20T12:19:10.315Z,100473
2018-06-20T12:20:15.184Z,100461
2018-06-20T12:21:20.672Z,100459
2018-06-20T12:22:25.701Z,100461
2018-06-20T12:23:30.300Z,100464
2018-06-20T12:24:35.739Z,100459
2018-06-20T12:25:40.612Z,100461
2018-06-20T12:26:46.093Z,100461
2018-06-20T12:27:50.940Z,100461
2018-06-20T12:28:56.111Z,100456
2018-06-20T12:30:01.278Z,100456
2018-06-20T12:31:06.701Z,100450
2018-06-20T12:32:12.161Z,100450
2018-06-20T12:33:18.012Z,100447
2018-06-20T12:34:23.334Z,100453
2018-06-20T12:35:28.724Z,100447
2018-06-20T12:36:34.424Z,100444
2018-06-20T12:37:38.801Z,100444
2018-06-20T12:38:44.241Z,100447
2018-06-20T12:39:49.378Z,100441
2018-06-20T12:40:54.727Z,100438
2018-06-20T12:42:00.508Z,100450
2018-06-20T12:43:05.962Z,100453
2018-06-20T12:44:10.853Z,100438
2018-06-20T12:45:15.733Z,100441
2018-06-20T12:46:21.004Z,100441
2018-06-20T12:47:26.160Z,100441
2018-06-20T12:48:31.851Z,100438
2018-06-20T12:49:37.223Z,100435
2018-06-20T12:50:42.396Z,100441
2018-06-20T12:51:48.197Z,100421
2018-06-20T12:52:53.599Z,100433
2018-06-20T12:53:58.768Z,100427
2018-06-20T12:55:04.329Z,100427
2018-06-20T12:56:09.509Z,100430
2018-06-20T12:57:14.687Z,100418
2018-06-20T12:58:20.238Z,100427
2018-06-20T12:59:25.620Z,100421
2018-06-20T13:00:30.526Z,100436
2018-06-20T13:01:36.001Z,100418
2018-06-20T13:02:41.180Z,100421
2018-06-20T13:03:46.435Z,100418
2018-06-20T13:04:51.604Z,100418
2018-06-20T13:05:57.050Z,100412
2018-06-20T13:07:01.350Z,100418
2018-06-20T13:08:06.173Z,100409
2018-06-20T13:09:11.054Z,100418
2018-06-20T13:10:16.562Z,100418
2018-06-20T13:11:21.755Z,100404
2018-06-20T13:12:27.449Z,100409
2018-06-20T13:13:32.642Z,100409
2018-06-20T13:14:38.607Z,100412
2018-06-20T13:15:44.465Z,100412
2018-06-20T13:16:49.621Z,100412
2018-06-20T13:17:54.812Z,100409
2018-06-20T13:19:00.115Z,100415
2018-06-20T13:20:06.066Z,100410
2018-06-20T13:21:10.699Z,100401
2018-06-20T13:22:16.697Z,100404
2018-06-20T13:23:22.065Z,100404
2018-06-20T13:24:27.581Z,100404
2018-06-20T13:25:32.757Z,100398
2018-06-20T13:26:37.916Z,100392
2018-06-20T13:27:43.719Z,100401
2018-06-20T13:28:49.378Z,100398
2018-06-20T13:29:54.796Z,100392
2018-06-20T13:30:59.633Z,100401
2018-06-20T13:32:04.712Z,100389
2018-06-20T13:33:10.086Z,100389
2018-06-20T13:34:15.508Z,100389
2018-06-20T13:35:20.946Z,100398